Time;durP1;ratioP1;P1;durP2;ratioP2;P2;SDS_P1;SDS_P2;PMS_P1;PMS_P2;Temp;Humidity;BMP_temperature;BMP_pressure;BME280_temperature;BME280_humidity;BME280_pressure;Samples;Min_cycle;Max_cycle;Signal;HPM_P1;HPM_P2
2021/09/14 00:01:37;;;;;;;5.43;4.68;;;;;;;;;;5001253;28;20119;-59
2021/09/14 00:04:03;;;;;;;7.25;5.68;;;;;;;;;;5035597;28;20026;-59
2021/09/14 00:06:29;;;;;;;5.30;4.72;;;;;;;;;;5035420;28;20028;-59
2021/09/14 00:08:55;;;;;;;6.63;5.57;;;;;;;;;;5034866;28;20368;-59
2021/09/14 00:11:21;;;;;;;5.95;5.35;;;;;;;;;;5034907;28;20017;-58
2021/09/14 00:13:52;;;;;;;6.50;5.03;;;;;;;;;;5034985;28;20525;-59
2021/09/14 00:16:21;;;;;;;6.55;5.43;;;;;;;;;;5017128;28;20021;-59
2021/09/14 00:18:47;;;;;;;5.97;5.25;;;;;;;;;;5034635;28;20018;-59
2021/09/14 00:21:13;;;;;;;7.22;6.25;;;;;;;;;;5034685;28;20033;-59
2021/09/14 00:23:39;;;;;;;7.28;5.45;;;;;;;;;;5034588;28;20026;-59
2021/09/14 00:26:05;;;;;;;9.18;5.57;;;;;;;;;;5034404;28;20467;-59
2021/09/14 00:28:31;;;;;;;7.20;5.97;;;;;;;;;;5034794;28;20029;-59
2021/09/14 00:30:57;;;;;;;6.78;6.10;;;;;;;;;;5034715;28;20029;-59
2021/09/14 00:33:23;;;;;;;9.20;5.75;;;;;;;;;;5034627;28;20048;-59
2021/09/14 00:35:49;;;;;;;7.88;6.10;;;;;;;;;;5016731;28;20057;-59
2021/09/14 00:38:18;;;;;;;6.88;6.13;;;;;;;;;;5016887;28;20057;-59
2021/09/14 00:40:44;;;;;;;6.72;5.97;;;;;;;;;;5034291;28;20029;-58
2021/09/14 00:43:10;;;;;;;7.35;5.63;;;;;;;;;;5034608;28;20026;-59
2021/09/14 00:45:36;;;;;;;7.32;6.63;;;;;;;;;;5034263;28;20067;-59
2021/09/14 00:48:02;;;;;;;6.57;5.70;;;;;;;;;;5034983;28;20525;-58
2021/09/14 00:50:28;;;;;;;8.73;6.68;;;;;;;;;;5033913;28;20391;-59
2021/09/14 00:52:54;;;;;;;6.85;5.95;;;;;;;;;;5034654;28;20033;-59
2021/09/14 00:55:20;;;;;;;8.38;7.30;;;;;;;;;;5033807;28;20026;-59
2021/09/14 00:57:46;;;;;;;7.80;6.97;;;;;;;;;;5033995;28;20100;-59
2021/09/14 01:00:12;;;;;;;7.68;6.50;;;;;;;;;;5033982;28;20200;-59
2021/09/14 01:02:41;;;;;;;7.63;6.93;;;;;;;;;;5034146;28;20112;-59
2021/09/14 01:05:08;;;;;;;8.68;7.18;;;;;;;;;;5033790;28;20035;-58
2021/09/14 01:07:34;;;;;;;8.57;7.35;;;;;;;;;;5033605;28;20460;-59
2021/09/14 01:10:00;;;;;;;7.88;7.07;;;;;;;;;;5015312;28;20044;-59
2021/09/14 01:12:26;;;;;;;8.57;7.70;;;;;;;;;;5034037;28;20022;-59
2021/09/14 01:14:54;;;;;;;7.30;6.60;;;;;;;;;;5016638;28;20364;-59
2021/09/14 01:17:20;;;;;;;8.88;7.15;;;;;;;;;;5016001;28;20029;-59
2021/09/14 01:19:46;;;;;;;6.80;6.00;;;;;;;;;;5033684;28;20112;-59
2021/09/14 01:22:12;;;;;;;8.90;7.22;;;;;;;;;;5034449;28;20079;-59
2021/09/14 01:24:38;;;;;;;9.30;7.15;;;;;;;;;;5033644;28;20025;-59
2021/09/14 01:27:04;;;;;;;7.25;5.97;;;;;;;;;;5034353;28;20428;-59
2021/09/14 01:32:15;;;;;;;8.60;7.40;;;;;;;;;;5033964;28;20032;-59
2021/09/14 01:34:41;;;;;;;8.90;7.07;;;;;;;;;;5033506;28;20021;-59
2021/09/14 01:37:07;;;;;;;7.40;6.35;;;;;;;;;;5033608;28;20067;-59
2021/09/14 01:39:33;;;;;;;6.30;5.15;;;;;;;;;;5033268;28;20025;-59
2021/09/14 01:41:59;;;;;;;9.38;6.28;;;;;;;;;;5033786;28;20033;-59
2021/09/14 01:44:25;;;;;;;7.00;6.25;;;;;;;;;;5033464;28;20033;-59
2021/09/14 01:46:52;;;;;;;8.65;6.45;;;;;;;;;;5033406;28;20095;-59
2021/09/14 01:49:18;;;;;;;7.45;6.22;;;;;;;;;;5033957;28;20025;-59
2021/09/14 01:51:44;;;;;;;6.05;5.30;;;;;;;;;;5033734;28;20460;-59
2021/09/14 01:54:10;;;;;;;5.55;5.05;;;;;;;;;;5033320;28;20072;-59
2021/09/14 01:56:37;;;;;;;6.70;6.07;;;;;;;;;;5033280;28;20030;-59
2021/09/14 01:59:04;;;;;;;6.32;5.50;;;;;;;;;;5033367;28;20511;-59
2021/09/14 02:01:34;;;;;;;10.73;5.70;;;;;;;;;;5033227;28;20033;-59
2021/09/14 02:04:12;;;;;;;6.70;5.68;;;;;;;;;;5016223;28;20045;-59
2021/09/14 02:58:44;;;;;;;6.05;5.32;;;;;;;;;;5036381;28;20037;-59
2021/09/14 03:01:11;;;;;;;8.52;6.10;;;;;;;;;;5019416;28;20105;-59
2021/09/14 03:03:39;;;;;;;6.70;5.88;;;;;;;;;;5036485;28;20032;-59
2021/09/14 03:06:05;;;;;;;5.60;4.95;;;;;;;;;;5018391;28;20041;-59
2021/09/14 03:08:33;;;;;;;6.40;5.78;;;;;;;;;;5036053;28;20029;-59
2021/09/14 03:11:04;;;;;;;6.40;5.80;;;;;;;;;;5036544;28;20364;-59
2021/09/14 03:13:30;;;;;;;6.53;5.80;;;;;;;;;;5018382;28;20057;-59
2021/09/14 03:15:56;;;;;;;9.77;6.80;;;;;;;;;;5036011;28;20022;-59
2021/09/14 03:18:22;;;;;;;9.10;6.03;;;;;;;;;;5035906;28;20387;-59
2021/09/14 03:20:48;;;;;;;6.93;6.32;;;;;;;;;;5035871;28;20032;-59
2021/09/14 03:23:14;;;;;;;7.72;5.90;;;;;;;;;;5036051;28;20054;-59
2021/09/14 03:25:40;;;;;;;8.10;5.50;;;;;;;;;;5035878;28;20025;-59
2021/09/14 03:28:06;;;;;;;10.35;6.53;;;;;;;;;;5035453;28;20546;-59
2021/09/14 03:30:32;;;;;;;8.85;6.35;;;;;;;;;;5017812;28;20093;-59
2021/09/14 03:33:00;;;;;;;7.22;5.72;;;;;;;;;;5035399;28;20021;-59
2021/09/14 03:35:27;;;;;;;6.75;5.65;;;;;;;;;;5036138;28;20364;-59
2021/09/14 03:37:55;;;;;;;12.13;7.00;;;;;;;;;;5035565;28;20033;-59
2021/09/14 03:40:21;;;;;;;7.65;6.85;;;;;;;;;;5017999;28;20029;-59
2021/09/14 03:42:47;;;;;;;6.57;5.57;;;;;;;;;;5035860;28;20030;-59
2021/09/14 03:45:13;;;;;;;8.20;6.32;;;;;;;;;;5035346;28;20067;-59
2021/09/14 03:47:39;;;;;;;7.90;5.63;;;;;;;;;;5017598;28;20401;-59
2021/09/14 03:50:05;;;;;;;5.93;5.32;;;;;;;;;;5034955;28;20076;-59
2021/09/14 03:52:31;;;;;;;8.48;6.05;;;;;;;;;;5018332;28;20033;-59
2021/09/14 03:54:57;;;;;;;6.65;4.68;;;;;;;;;;5035246;28;20448;-59
2021/09/14 03:57:23;;;;;;;8.32;5.63;;;;;;;;;;5035768;28;20088;-59
2021/09/14 03:59:49;;;;;;;5.85;5.30;;;;;;;;;;5017881;28;20024;-59
2021/09/14 04:02:30;;;;;;;8.77;6.38;;;;;;;;;;5016817;28;20021;-59
2021/09/14 04:07:37;;;;;;;9.02;6.47;;;;;;;;;;5035009;28;20034;-59
2021/09/14 04:10:07;;;;;;;5.85;5.28;;;;;;;;;;5034755;28;20041;-59
2021/09/14 04:12:33;;;;;;;7.50;6.22;;;;;;;;;;5017929;28;20056;-59
2021/09/14 04:15:03;;;;;;;7.32;6.35;;;;;;;;;;5035079;28;20061;-59
2021/09/14 04:17:29;;;;;;;6.82;5.57;;;;;;;;;;5034453;28;20467;-59
2021/09/14 04:19:55;;;;;;;7.80;6.55;;;;;;;;;;5034654;28;20036;-59
2021/09/14 04:22:21;;;;;;;9.38;6.90;;;;;;;;;;5034532;28;20048;-59
2021/09/14 04:24:48;;;;;;;10.55;6.65;;;;;;;;;;5034544;28;20038;-59
2021/09/14 04:27:14;;;;;;;7.45;6.68;;;;;;;;;;5034497;28;20017;-59
2021/09/14 04:29:41;;;;;;;8.15;7.07;;;;;;;;;;5016965;28;20028;-59
2021/09/14 04:32:07;;;;;;;7.22;6.53;;;;;;;;;;5034714;28;20029;-60
2021/09/14 04:34:33;;;;;;;6.70;6.10;;;;;;;;;;5016642;28;20035;-59
2021/09/14 04:36:59;;;;;;;8.40;5.78;;;;;;;;;;5034554;28;20021;-59
2021/09/14 04:39:29;;;;;;;7.63;6.38;;;;;;;;;;5017100;28;20448;-59
2021/09/14 04:41:55;;;;;;;;;;;;;;;;;;5017837;28;20034;-59
2021/09/14 04:44:21;;;;;;;7.22;6.35;;;;;;;;;;5034173;28;19955;-59
2021/09/14 04:46:47;;;;;;;8.25;5.95;;;;;;;;;;5034420;28;20459;-59
2021/09/14 04:49:13;;;;;;;10.10;6.18;;;;;;;;;;5034279;28;20025;-59
2021/09/14 04:51:40;;;;;;;9.57;7.80;;;;;;;;;;5016526;28;20021;-59
2021/09/14 04:54:06;;;;;;;6.68;5.68;;;;;;;;;;5017340;28;20212;-59
2021/09/14 04:56:32;;;;;;;6.20;5.60;;;;;;;;;;5033384;28;20057;-59
2021/09/14 04:58:58;;;;;;;7.22;6.35;;;;;;;;;;5016370;28;20471;-59
2021/09/14 05:01:24;;;;;;;7.45;6.68;;;;;;;;;;5033918;28;20108;-59
2021/09/14 05:03:50;;;;;;;9.15;6.53;;;;;;;;;;5034563;28;20463;-59
2021/09/14 05:06:16;;;;;;;7.90;6.40;;;;;;;;;;5033867;28;20395;-59
2021/09/14 05:08:42;;;;;;;8.77;6.72;;;;;;;;;;5016264;28;20033;-58
2021/09/14 05:11:09;;;;;;;10.18;6.85;;;;;;;;;;5033535;28;20472;-60
2021/09/14 05:13:36;;;;;;;7.20;6.40;;;;;;;;;;5033590;28;20057;-59
2021/09/14 05:16:02;;;;;;;7.30;6.57;;;;;;;;;;5034156;28;20030;-59
2021/09/14 05:18:29;;;;;;;7.03;6.25;;;;;;;;;;5015769;28;20026;-59
2021/09/14 05:20:56;;;;;;;10.68;7.18;;;;;;;;;;5034060;28;20075;-59
2021/09/14 05:23:32;;;;;;;7.72;6.53;;;;;;;;;;5034142;28;20025;-59
2021/09/14 05:26:02;;;;;;;6.78;6.18;;;;;;;;;;5016521;28;20033;-59
2021/09/14 05:28:28;;;;;;;9.07;8.10;;;;;;;;;;5033914;28;20052;-59
2021/09/14 05:30:54;;;;;;;11.68;7.57;;;;;;;;;;5016148;28;20261;-59
2021/09/14 05:33:20;;;;;;;10.13;8.98;;;;;;;;;;5033823;28;20088;-59
2021/09/14 05:35:51;;;;;;;8.13;7.35;;;;;;;;;;5034140;28;20026;-60
2021/09/14 05:38:18;;;;;;;8.65;7.75;;;;;;;;;;5033389;28;20064;-60
2021/09/14 05:40:44;;;;;;;9.95;7.97;;;;;;;;;;5015610;28;20080;-60
2021/09/14 05:43:10;;;;;;;10.30;9.13;;;;;;;;;;5015308;28;20017;-60
2021/09/14 05:45:36;;;;;;;8.90;7.60;;;;;;;;;;5016212;28;20034;-59
2021/09/14 05:48:03;;;;;;;7.30;6.60;;;;;;;;;;5033458;28;20100;-60
2021/09/14 05:50:28;;;;;;;8.52;7.50;;;;;;;;;;5015640;28;20021;-60
2021/09/14 05:52:56;;;;;;;10.15;7.95;;;;;;;;;;5016308;28;20087;-59
2021/09/14 05:55:24;;;;;;;9.25;8.35;;;;;;;;;;5033789;28;20098;-60
2021/09/14 05:57:50;;;;;;;10.43;8.10;;;;;;;;;;5033531;28;20017;-60
2021/09/14 06:00:16;;;;;;;9.52;6.93;;;;;;;;;;5000024;28;20028;-60
2021/09/14 06:02:42;;;;;;;17.05;8.75;;;;;;;;;;5016203;28;20025;-60
2021/09/14 06:05:08;;;;;;;9.50;8.32;;;;;;;;;;5033905;28;20057;-60
2021/09/14 06:07:34;;;;;;;10.18;7.90;;;;;;;;;;5033248;28;20107;-60
2021/09/14 06:10:00;;;;;;;10.02;7.30;;;;;;;;;;5033748;28;20467;-60
2021/09/14 06:12:27;;;;;;;9.13;8.07;;;;;;;;;;5015645;28;20030;-59
2021/09/14 06:14:53;;;;;;;8.15;7.35;;;;;;;;;;5015844;28;20132;-59
2021/09/14 06:17:19;;;;;;;13.98;7.60;;;;;;;;;;5033752;28;20037;-59
2021/09/14 06:19:45;;;;;;;8.93;7.70;;;;;;;;;;5016281;28;20029;-59
2021/09/14 06:22:11;;;;;;;8.15;7.32;;;;;;;;;;5033473;28;20025;-59
2021/09/14 06:24:37;;;;;;;9.55;7.70;;;;;;;;;;5035552;28;20031;-59
2021/09/14 06:27:03;;;;;;;8.90;7.70;;;;;;;;;;5002926;28;20399;-60
2021/09/14 06:29:29;;;;;;;9.48;7.65;;;;;;;;;;5036882;28;20021;-59
2021/09/14 06:31:55;;;;;;;9.10;6.45;;;;;;;;;;5036830;28;20040;-59
2021/09/14 06:34:21;;;;;;;7.43;6.72;;;;;;;;;;5019068;28;20029;-59
2021/09/14 06:36:47;;;;;;;10.55;7.18;;;;;;;;;;5036741;28;20487;-59
2021/09/14 06:39:17;;;;;;;11.13;6.63;;;;;;;;;;5036714;28;20093;-59
2021/09/14 06:41:43;;;;;;;7.95;6.28;;;;;;;;;;5002496;28;20057;-59
2021/09/14 06:44:09;;;;;;;8.45;6.88;;;;;;;;;;5036377;28;20080;-59
2021/09/14 06:46:35;;;;;;;15.02;7.38;;;;;;;;;;5036844;28;20025;-59
2021/09/14 06:49:01;;;;;;;7.20;6.35;;;;;;;;;;5036790;28;20047;-59
2021/09/14 06:51:27;;;;;;;6.57;5.75;;;;;;;;;;5018773;28;20026;-59
2021/09/14 06:53:55;;;;;;;10.45;6.65;;;;;;;;;;5037047;28;20534;-59
2021/09/14 06:56:24;;;;;;;8.38;6.85;;;;;;;;;;5036675;28;20057;-60
2021/09/14 06:58:50;;;;;;;7.72;6.68;;;;;;;;;;5036768;28;20029;-59
2021/09/14 07:01:22;;;;;;;6.47;5.85;;;;;;;;;;5037202;28;20057;-59
2021/09/14 07:03:49;;;;;;;6.70;5.80;;;;;;;;;;5019213;28;20033;-59
2021/09/14 07:06:15;;;;;;;6.90;6.30;;;;;;;;;;5018194;28;20497;-59
2021/09/14 07:08:42;;;;;;;6.68;5.78;;;;;;;;;;5036483;28;20440;-60
2021/09/14 07:11:08;;;;;;;6.55;5.95;;;;;;;;;;5035968;28;20041;-59
2021/09/14 07:13:34;;;;;;;6.97;6.25;;;;;;;;;;5036059;28;20049;-59
2021/09/14 07:16:00;;;;;;;7.70;6.88;;;;;;;;;;5036104;28;20353;-59
2021/09/14 07:18:26;;;;;;;7.72;5.78;;;;;;;;;;5036056;28;20375;-59
2021/09/14 07:20:52;;;;;;;7.05;6.22;;;;;;;;;;5018482;28;20030;-60
2021/09/14 07:23:20;;;;;;;9.80;6.72;;;;;;;;;;5001938;28;20036;-60
2021/09/14 07:25:46;;;;;;;7.45;5.82;;;;;;;;;;5035832;28;20427;-60
2021/09/14 07:28:12;;;;;;;7.03;6.32;;;;;;;;;;5035608;28;20463;-59
2021/09/14 07:30:38;;;;;;;7.60;5.78;;;;;;;;;;5018073;28;20028;-59
2021/09/14 07:33:04;;;;;;;6.43;5.82;;;;;;;;;;5035842;28;20049;-59
2021/09/14 07:35:34;;;;;;;7.85;5.57;;;;;;;;;;5017174;28;20037;-59
2021/09/14 07:38:00;;;;;;;6.72;5.57;;;;;;;;;;5036203;28;20060;-60
2021/09/14 07:40:27;;;;;;;5.07;4.43;;;;;;;;;;5017799;28;20053;-59
2021/09/14 07:42:57;;;;;;;6.78;5.15;;;;;;;;;;5036358;28;20033;-60
2021/09/14 07:45:23;;;;;;;9.13;5.93;;;;;;;;;;5036151;28;20414;-60
2021/09/14 07:47:49;;;;;;;7.75;6.43;;;;;;;;;;5018652;28;20376;-60
2021/09/14 07:50:15;;;;;;;6.15;5.38;;;;;;;;;;5035546;28;20025;-60
2021/09/14 07:52:41;;;;;;;6.40;4.65;;;;;;;;;;5018136;28;20033;-60
2021/09/14 07:55:07;;;;;;;6.97;5.45;;;;;;;;;;5017680;28;20021;-59
2021/09/14 07:57:33;;;;;;;7.88;6.63;;;;;;;;;;5035429;28;20028;-60
2021/09/14 07:59:59;;;;;;;6.65;5.45;;;;;;;;;;5017806;28;20032;-59
2021/09/14 08:02:25;;;;;;;5.40;4.78;;;;;;;;;;5017774;28;20379;-60
2021/09/14 08:04:52;;;;;;;7.10;4.47;;;;;;;;;;5035265;28;20097;-60
2021/09/14 08:07:21;;;;;;;7.85;4.95;;;;;;;;;;5035109;28;20032;-60
2021/09/14 08:09:47;;;;;;;6.70;5.05;;;;;;;;;;5035314;28;20052;-59
2021/09/14 08:12:13;;;;;;;5.85;4.93;;;;;;;;;;5035365;28;20029;-60
2021/09/14 08:14:39;;;;;;;5.43;4.93;;;;;;;;;;5034868;28;20121;-60
2021/09/14 08:17:05;;;;;;;6.75;5.57;;;;;;;;;;5035556;28;20021;-59
2021/09/14 08:19:31;;;;;;;5.65;4.60;;;;;;;;;;5035464;28;20077;-60
2021/09/14 08:21:58;;;;;;;4.72;4.22;;;;;;;;;;5017547;28;20080;-59
2021/09/14 08:24:24;;;;;;;6.35;4.93;;;;;;;;;;5035231;28;20033;-60
2021/09/14 08:26:51;;;;;;;9.40;5.18;;;;;;;;;;5034773;28;20033;-60
2021/09/14 08:29:17;;;;;;;5.32;4.75;;;;;;;;;;5035028;28;20021;-60
2021/09/14 08:31:43;;;;;;;7.22;5.13;;;;;;;;;;5034653;28;20426;-60
2021/09/14 08:34:09;;;;;;;8.48;5.22;;;;;;;;;;5017105;28;20380;-59
2021/09/14 08:36:36;;;;;;;5.70;4.68;;;;;;;;;;5034654;28;20026;-60
2021/09/14 08:39:05;;;;;;;6.93;4.50;;;;;;;;;;5033934;28;20065;-60
2021/09/14 08:41:31;;;;;;;5.78;4.78;;;;;;;;;;5034497;28;20051;-60
2021/09/14 08:43:57;;;;;;;4.75;3.70;;;;;;;;;;5034740;28;20360;-60
2021/09/14 08:46:24;;;;;;;10.38;5.07;;;;;;;;;;5034800;28;20061;-60
2021/09/14 08:48:50;;;;;;;5.15;4.50;;;;;;;;;;5034346;28;20036;-60
2021/09/14 08:51:16;;;;;;;5.05;3.97;;;;;;;;;;5034325;28;20025;-60
2021/09/14 08:53:43;;;;;;;5.18;4.32;;;;;;;;;;5034934;28;20142;-60
2021/09/14 08:56:10;;;;;;;5.97;4.18;;;;;;;;;;5034327;28;20022;-60
2021/09/14 08:58:36;;;;;;;5.65;4.50;;;;;;;;;;5034483;28;20440;-60
2021/09/14 09:01:02;;;;;;;5.07;4.05;;;;;;;;;;5033817;28;20443;-60
2021/09/14 09:03:30;;;;;;;5.53;4.35;;;;;;;;;;5033831;28;20025;-60
2021/09/14 09:05:57;;;;;;;4.40;3.38;;;;;;;;;;5016362;28;20120;-60
2021/09/14 09:08:24;;;;;;;4.72;4.00;;;;;;;;;;5034066;28;20029;-60
2021/09/14 09:11:09;;;;;;;4.40;3.95;;;;;;;;;;5033706;28;20468;-57
2021/09/14 09:13:47;;;;;;;4.25;3.85;;;;;;;;;;5034176;28;20445;-57
2021/09/14 09:16:24;;;;;;;4.95;4.30;;;;;;;;;;5016810;28;20364;-57
2021/09/14 09:18:58;;;;;;;4.35;3.67;;;;;;;;;;5033878;28;20073;-57
2021/09/14 09:21:31;;;;;;;3.80;3.38;;;;;;;;;;5034402;28;20017;-57
2021/09/14 09:23:58;;;;;;;4.95;3.97;;;;;;;;;;5034076;28;20034;-57
2021/09/14 09:26:35;;;;;;;5.82;3.72;;;;;;;;;;5033820;28;20053;-57
2021/09/14 09:29:04;;;;;;;5.13;4.00;;;;;;;;;;5016676;28;20105;-58
2021/09/14 09:31:30;;;;;;;4.32;3.17;;;;;;;;;;5016811;28;20052;-58
2021/09/14 09:34:00;;;;;;;4.68;3.80;;;;;;;;;;5033680;28;20021;-58
2021/09/14 09:36:29;;;;;;;4.30;3.45;;;;;;;;;;5033621;28;20024;-59
2021/09/14 09:38:58;;;;;;;4.88;3.95;;;;;;;;;;5033631;28;20490;-59
2021/09/14 09:41:24;;;;;;;5.40;3.83;;;;;;;;;;5033612;28;20033;-58
2021/09/14 09:43:50;;;;;;;7.70;3.97;;;;;;;;;;5033440;28;20495;-58
2021/09/14 09:46:20;;;;;;;4.88;3.55;;;;;;;;;;5033809;28;20037;-58
2021/09/14 09:48:47;;;;;;;4.68;3.17;;;;;;;;;;5033896;28;20522;-58
2021/09/14 09:51:13;;;;;;;5.13;3.40;;;;;;;;;;5033402;28;20029;-58
2021/09/14 09:53:39;;;;;;;5.30;3.22;;;;;;;;;;5034093;28;20073;-58
2021/09/14 09:56:06;;;;;;;6.30;3.85;;;;;;;;;;5015823;28;20022;-58
2021/09/14 09:58:32;;;;;;;5.32;3.75;;;;;;;;;;5034245;28;20458;-58
2021/09/14 10:01:03;;;;;;;7.93;3.38;;;;;;;;;;5038091;28;20503;-58
2021/09/14 10:03:30;;;;;;;4.30;3.30;;;;;;;;;;5037971;28;20025;-58
2021/09/14 10:05:59;;;;;;;4.40;3.75;;;;;;;;;;5037090;28;20467;-58
2021/09/14 10:08:27;;;;;;;3.90;3.42;;;;;;;;;;5037393;28;20028;-58
2021/09/14 10:10:55;;;;;;;4.30;3.90;;;;;;;;;;5037391;28;20029;-59
2021/09/14 10:13:28;;;;;;;5.57;3.65;;;;;;;;;;5037192;28;20089;-58
2021/09/14 10:15:54;;;;;;;3.35;2.78;;;;;;;;;;5037614;28;20021;-59
2021/09/14 10:18:26;;;;;;;4.82;3.10;;;;;;;;;;5037164;28;20025;-58
2021/09/14 10:20:52;;;;;;;4.75;3.35;;;;;;;;;;5037746;28;20034;-58
2021/09/14 10:23:22;;;;;;;4.03;3.60;;;;;;;;;;5036908;28;20551;-58
2021/09/14 10:25:51;;;;;;;5.10;3.72;;;;;;;;;;5037663;28;20029;-59
2021/09/14 10:28:19;;;;;;;6.43;3.88;;;;;;;;;;5037078;28;20057;-58
2021/09/14 10:30:45;;;;;;;4.95;3.55;;;;;;;;;;5036943;28;20013;-58
2021/09/14 10:33:38;;;;;;;4.80;3.40;;;;;;;;;;5037161;28;20360;-59
2021/09/14 10:36:12;;;;;;;5.50;4.18;;;;;;;;;;5033460;28;20528;-58
2021/09/14 10:38:47;;;;;;;4.00;3.47;;;;;;;;;;5037689;28;20018;-58
2021/09/14 10:41:15;;;;;;;4.40;3.85;;;;;;;;;;5036850;28;20101;-59
2021/09/14 10:44:00;;;;;;;4.22;3.55;;;;;;;;;;5036455;28;20479;-59
2021/09/14 10:46:30;;;;;;;4.32;3.00;;;;;;;;;;5037587;28;20033;-58
2021/09/14 10:48:55;;;;;;;4.15;3.63;;;;;;;;;;5036341;28;20476;-58
2021/09/14 10:51:21;;;;;;;5.35;3.60;;;;;;;;;;5037181;28;20064;-59
2021/09/14 10:53:54;;;;;;;5.15;3.53;;;;;;;;;;5036963;28;20105;-59
2021/09/14 10:56:20;;;;;;;4.97;3.85;;;;;;;;;;5036485;28;20030;-58
2021/09/14 10:58:46;;;;;;;5.30;4.03;;;;;;;;;;5036436;28;20033;-58
2021/09/14 11:01:13;;;;;;;4.72;3.72;;;;;;;;;;5036435;28;20025;-59
2021/09/14 11:03:40;;;;;;;6.45;4.47;;;;;;;;;;5036321;28;20026;-58
2021/09/14 11:06:10;;;;;;;5.90;3.30;;;;;;;;;;5036328;28;20076;-59
2021/09/14 11:08:36;;;;;;;4.20;3.38;;;;;;;;;;5036436;28;20025;-59
2021/09/14 11:11:03;;;;;;;5.15;3.45;;;;;;;;;;5034725;28;20025;-59
2021/09/14 11:13:30;;;;;;;5.30;3.58;;;;;;;;;;5035908;28;20392;-59
2021/09/14 11:16:03;;;;;;;6.30;3.53;;;;;;;;;;5036385;28;20025;-58
2021/09/14 11:18:30;;;;;;;5.30;3.83;;;;;;;;;;5036124;28;20053;-59
2021/09/14 11:21:22;;;;;;;5.50;4.22;;;;;;;;;;5036105;28;20022;-59
2021/09/14 11:23:49;;;;;;;5.95;3.70;;;;;;;;;;5032381;28;20037;-59
2021/09/14 11:26:17;;;;;;;4.40;3.47;;;;;;;;;;5035784;28;20543;-59
2021/09/14 11:28:59;;;;;;;3.40;3.10;;;;;;;;;;5036440;28;20029;-59
2021/09/14 11:31:30;;;;;;;5.57;3.63;;;;;;;;;;5035842;28;20029;-59
2021/09/14 11:33:56;;;;;;;4.05;3.65;;;;;;;;;;5035862;28;20112;-59
2021/09/14 11:36:24;;;;;;;3.15;2.83;;;;;;;;;;5036070;28;20037;-59
2021/09/14 11:38:59;;;;;;;5.88;3.45;;;;;;;;;;5035736;28;20040;-59
2021/09/14 11:41:33;;;;;;;6.18;4.55;;;;;;;;;;5035993;28;20028;-59
2021/09/14 11:43:59;;;;;;;4.88;3.88;;;;;;;;;;5036149;28;20108;-59
2021/09/14 11:46:25;;;;;;;4.25;3.25;;;;;;;;;;5035368;28;20495;-59
2021/09/14 11:49:01;;;;;;;6.07;3.83;;;;;;;;;;5035547;28;20026;-59
2021/09/14 11:51:28;;;;;;;5.30;4.30;;;;;;;;;;5035820;28;20025;-59
2021/09/14 11:53:54;;;;;;;7.03;3.80;;;;;;;;;;5035224;28;20479;-59
2021/09/14 11:56:21;;;;;;;4.70;3.30;;;;;;;;;;5035521;28;20017;-59
2021/09/14 11:58:48;;;;;;;4.95;3.95;;;;;;;;;;5035453;28;20108;-59
2021/09/14 12:01:16;;;;;;;6.50;4.18;;;;;;;;;;5035332;28;20104;-59
2021/09/14 12:03:54;;;;;;;4.30;3.28;;;;;;;;;;5035605;28;20065;-59
2021/09/14 12:06:23;;;;;;;5.43;3.78;;;;;;;;;;5035991;28;20034;-59
2021/09/14 12:08:49;;;;;;;4.35;3.50;;;;;;;;;;5035190;28;20471;-59
2021/09/14 12:11:26;;;;;;;6.68;3.63;;;;;;;;;;5034835;28;20096;-59
2021/09/14 12:13:55;;;;;;;3.95;3.28;;;;;;;;;;5035431;28;20056;-59
2021/09/14 12:16:32;;;;;;;4.88;3.70;;;;;;;;;;5035113;28;20025;-59
2021/09/14 12:18:59;;;;;;;5.43;4.00;;;;;;;;;;5035654;28;20029;-59
2021/09/14 12:21:25;;;;;;;6.20;2.97;;;;;;;;;;5034649;28;20035;-59
2021/09/14 12:23:51;;;;;;;4.93;3.28;;;;;;;;;;5034909;28;20107;-59
2021/09/14 12:26:18;;;;;;;4.93;3.38;;;;;;;;;;5034839;28;20468;-59
2021/09/14 12:28:44;;;;;;;6.30;3.40;;;;;;;;;;5034888;28;20025;-59
2021/09/14 12:31:10;;;;;;;4.82;3.08;;;;;;;;;;5034687;28;20030;-59
2021/09/14 12:33:36;;;;;;;4.80;3.42;;;;;;;;;;5035011;28;20021;-59
2021/09/14 12:36:02;;;;;;;5.93;3.72;;;;;;;;;;5034701;28;20029;-59
2021/09/14 12:38:28;;;;;;;4.88;3.22;;;;;;;;;;5035143;28;20116;-59
2021/09/14 12:40:54;;;;;;;5.30;3.85;;;;;;;;;;5034597;28;20025;-59
2021/09/14 12:43:20;;;;;;;4.25;3.67;;;;;;;;;;5035070;28;20375;-59
2021/09/14 12:45:46;;;;;;;4.00;3.00;;;;;;;;;;5034790;28;20029;-59
2021/09/14 12:48:12;;;;;;;4.15;3.58;;;;;;;;;;5034710;28;20116;-59
2021/09/14 12:50:38;;;;;;;4.93;4.45;;;;;;;;;;5034454;28;20076;-59
2021/09/14 12:53:04;;;;;;;5.70;4.60;;;;;;;;;;5034391;28;20036;-59
2021/09/14 12:55:35;;;;;;;6.47;4.75;;;;;;;;;;5035060;28;20032;-59
2021/09/14 12:58:00;;;;;;;6.63;4.15;;;;;;;;;;5034321;28;20029;-59
2021/09/14 13:00:26;;;;;;;7.90;4.82;;;;;;;;;;5033813;28;20048;-59
2021/09/14 13:02:52;;;;;;;5.25;4.53;;;;;;;;;;5034443;28;20029;-59
2021/09/14 13:05:18;;;;;;;7.32;3.72;;;;;;;;;;5034137;28;20546;-59
2021/09/14 13:07:44;;;;;;;5.07;4.55;;;;;;;;;;5033917;28;20076;-59
2021/09/14 13:10:13;;;;;;;5.75;4.70;;;;;;;;;;5033873;28;20498;-59
2021/09/14 13:12:46;;;;;;;5.47;4.43;;;;;;;;;;5033744;28;20068;-59
2021/09/14 13:18:00;;;;;;;4.43;3.90;;;;;;;;;;5034076;28;20129;-60
2021/09/14 13:20:30;;;;;;;6.28;4.85;;;;;;;;;;5016690;28;20026;-60
2021/09/14 13:22:59;;;;;;;7.60;4.63;;;;;;;;;;5034193;28;20229;-60
2021/09/14 13:25:25;;;;;;;9.52;4.95;;;;;;;;;;5033810;28;20116;-60
2021/09/14 13:27:51;;;;;;;9.15;5.00;;;;;;;;;;5034080;28;20104;-60
2021/09/14 13:30:17;;;;;;;5.43;4.45;;;;;;;;;;5033543;28;20071;-60
2021/09/14 13:32:43;;;;;;;5.65;4.32;;;;;;;;;;5015576;28;20095;-59
2021/09/14 13:35:09;;;;;;;7.57;4.88;;;;;;;;;;5033167;28;20112;-60
2021/09/14 13:37:35;;;;;;;5.72;4.55;;;;;;;;;;5034069;28;20108;-60
2021/09/14 13:40:01;;;;;;;5.30;4.80;;;;;;;;;;5033701;28;20490;-59
2021/09/14 13:42:29;;;;;;;8.65;4.70;;;;;;;;;;5033665;28;20056;-60
2021/09/14 13:47:21;;;;;;;5.30;4.68;;;;;;;;;;5033676;28;20029;-60
2021/09/14 13:49:48;;;;;;;4.75;4.20;;;;;;;;;;5033896;28;20025;-60
2021/09/14 13:52:14;;;;;;;5.97;4.18;;;;;;;;;;5016265;28;20417;-60
2021/09/14 14:01:11;;;;;;;4.85;3.90;;;;;;;;;;5002818;28;20037;-59
2021/09/14 14:03:43;;;;;;;4.35;3.60;;;;;;;;;;5028271;28;20033;-60
2021/09/14 14:06:09;;;;;;;7.30;4.72;;;;;;;;;;5033991;28;20032;-60
2021/09/14 14:08:35;;;;;;;6.13;4.90;;;;;;;;;;5015523;28;20025;-60
2021/09/14 14:11:01;;;;;;;5.60;4.63;;;;;;;;;;5033408;28;20053;-60
2021/09/14 14:13:30;;;;;;;6.10;4.72;;;;;;;;;;5033028;28;20483;-60
2021/09/14 14:15:59;;;;;;;4.03;3.63;;;;;;;;;;5033633;28;20032;-59
2021/09/14 14:18:26;;;;;;;5.05;4.50;;;;;;;;;;5033362;28;20375;-60
2021/09/14 14:20:52;;;;;;;5.82;4.82;;;;;;;;;;5033839;28;20021;-59
2021/09/14 14:23:18;;;;;;;6.63;5.03;;;;;;;;;;5033375;28;20080;-60
2021/09/14 14:25:44;;;;;;;6.60;4.18;;;;;;;;;;5034081;28;20025;-60
2021/09/14 14:28:10;;;;;;;5.97;4.72;;;;;;;;;;5033272;28;20040;-60
2021/09/14 14:30:36;;;;;;;8.40;4.40;;;;;;;;;;5033681;28;20021;-60
2021/09/14 14:33:05;;;;;;;7.38;4.75;;;;;;;;;;5032877;28;20018;-60
2021/09/14 14:35:31;;;;;;;4.90;4.40;;;;;;;;;;5033127;28;20022;-60
2021/09/14 14:37:57;;;;;;;6.18;4.05;;;;;;;;;;5033083;28;20478;-60
2021/09/14 14:40:23;;;;;;;6.75;5.72;;;;;;;;;;5033096;28;20018;-60
2021/09/14 14:42:50;;;;;;;6.35;5.07;;;;;;;;;;5032170;28;20041;-60
2021/09/14 14:45:20;;;;;;;5.93;5.10;;;;;;;;;;5016728;28;20487;-60
2021/09/14 14:47:55;;;;;;;5.63;4.95;;;;;;;;;;5036435;28;20025;-60
2021/09/14 14:50:24;;;;;;;7.53;5.75;;;;;;;;;;5019145;28;20053;-60
2021/09/14 14:52:53;;;;;;;8.07;5.10;;;;;;;;;;5036461;28;20040;-60
2021/09/14 14:55:19;;;;;;;7.65;5.82;;;;;;;;;;5036621;28;20101;-60
2021/09/14 14:57:45;;;;;;;5.88;4.63;;;;;;;;;;5036361;28;20072;-60
2021/09/14 15:00:12;;;;;;;5.78;5.18;;;;;;;;;;5036510;28;20018;-60
2021/09/14 15:02:38;;;;;;;6.65;4.45;;;;;;;;;;5036460;28;20033;-60
2021/09/14 15:05:05;;;;;;;7.75;5.45;;;;;;;;;;5036489;28;20026;-60
2021/09/14 15:07:31;;;;;;;6.85;5.13;;;;;;;;;;5036668;28;20021;-60
2021/09/14 15:09:57;;;;;;;5.65;5.00;;;;;;;;;;5036844;28;20026;-60
2021/09/14 15:12:23;;;;;;;7.80;5.43;;;;;;;;;;5036705;28;20026;-60
2021/09/14 15:14:49;;;;;;;4.82;4.32;;;;;;;;;;5036603;28;20174;-59
2021/09/14 15:17:15;;;;;;;6.90;5.03;;;;;;;;;;5036256;28;20025;-59
2021/09/14 15:19:43;;;;;;;6.05;5.45;;;;;;;;;;5036130;28;20479;-59
2021/09/14 15:22:09;;;;;;;6.32;5.20;;;;;;;;;;5036680;28;20042;-59
2021/09/14 15:24:36;;;;;;;6.68;5.45;;;;;;;;;;5036545;28;20049;-59
2021/09/14 15:27:02;;;;;;;5.45;4.95;;;;;;;;;;5036271;28;20029;-59
2021/09/14 15:29:29;;;;;;;6.00;5.18;;;;;;;;;;5036343;28;20025;-59
2021/09/14 15:31:55;;;;;;;6.10;5.28;;;;;;;;;;5036363;28;20025;-59
2021/09/14 15:34:21;;;;;;;5.97;5.32;;;;;;;;;;5036177;28;20025;-59
2021/09/14 15:36:47;;;;;;;5.60;4.63;;;;;;;;;;5035869;28;20105;-59
2021/09/14 15:39:13;;;;;;;6.97;4.43;;;;;;;;;;5036367;28;20340;-60
2021/09/14 15:41:39;;;;;;;7.03;5.40;;;;;;;;;;5035687;28;20091;-59
2021/09/14 15:44:05;;;;;;;6.43;5.32;;;;;;;;;;5018666;28;20056;-59
2021/09/14 15:46:31;;;;;;;6.32;5.38;;;;;;;;;;5035952;28;20029;-59
2021/09/14 15:48:57;;;;;;;5.85;5.20;;;;;;;;;;5035668;28;20025;-59
2021/09/14 15:51:23;;;;;;;6.72;5.05;;;;;;;;;;5035861;28;20096;-59
2021/09/14 15:53:49;;;;;;;7.15;4.97;;;;;;;;;;5036424;28;20088;-59